sensor_id;sensor_type;location;lat;lon;timestamp;P1;durP1;ratioP1;P2;durP2;ratioP2
15764;SDS011;7983;50.744;7.086;2024-01-10T00:00:11;4.57;;;3.07;;
15764;SDS011;7983;50.744;7.086;2024-01-10T00:02:36;4.67;;;2.80;;
15764;SDS011;7983;50.744;7.086;2024-01-10T00:05:02;5.50;;;3.00;;
15764;SDS011;7983;50.744;7.086;2024-01-10T00:07:31;4.77;;;3.00;;
15764;SDS011;7983;50.744;7.086;2024-01-10T00:09:56;3.57;;;2.40;;
15764;SDS011;7983;50.744;7.086;2024-01-10T00:12:24;4.60;;;3.00;;
15764;SDS011;7983;50.744;7.086;2024-01-10T00:14:50;4.43;;;2.70;;
15764;SDS011;7983;50.744;7.086;2024-01-10T00:17:16;7.03;;;2.90;;
15764;SDS011;7983;50.744;7.086;2024-01-10T00:19:44;6.70;;;3.70;;
15764;SDS011;7983;50.744;7.086;2024-01-10T00:22:11;6.17;;;3.70;;
15764;SDS011;7983;50.744;7.086;2024-01-10T00:24:37;6.37;;;3.67;;
15764;SDS011;7983;50.744;7.086;2024-01-10T00:27:05;5.93;;;3.67;;
15764;SDS011;7983;50.744;7.086;2024-01-10T00:29:33;6.30;;;3.40;;
15764;SDS011;7983;50.744;7.086;2024-01-10T00:32:01;5.33;;;3.20;;
15764;SDS011;7983;50.744;7.086;2024-01-10T00:34:29;5.73;;;3.10;;
15764;SDS011;7983;50.744;7.086;2024-01-10T00:36:56;4.27;;;2.90;;
15764;SDS011;7983;50.744;7.086;2024-01-10T00:39:23;5.70;;;2.70;;
15764;SDS011;7983;50.744;7.086;2024-01-10T00:41:51;3.73;;;2.30;;
15764;SDS011;7983;50.744;7.086;2024-01-10T00:44:19;3.93;;;2.50;;
15764;SDS011;7983;50.744;7.086;2024-01-10T00:46:45;3.30;;;2.60;;
15764;SDS011;7983;50.744;7.086;2024-01-10T00:49:10;6.43;;;2.53;;
15764;SDS011;7983;50.744;7.086;2024-01-10T00:51:38;4.60;;;2.70;;
15764;SDS011;7983;50.744;7.086;2024-01-10T00:54:04;3.80;;;2.60;;
15764;SDS011;7983;50.744;7.086;2024-01-10T00:56:30;3.57;;;2.53;;
15764;SDS011;7983;50.744;7.086;2024-01-10T00:58:57;3.00;;;2.20;;
15764;SDS011;7983;50.744;7.086;2024-01-10T01:01:23;3.83;;;2.20;;
15764;SDS011;7983;50.744;7.086;2024-01-10T01:03:51;3.30;;;2.13;;
15764;SDS011;7983;50.744;7.086;2024-01-10T01:06:21;4.57;;;2.33;;
15764;SDS011;7983;50.744;7.086;2024-01-10T01:08:49;4.37;;;2.73;;
15764;SDS011;7983;50.744;7.086;2024-01-10T01:11:15;4.37;;;2.50;;
15764;SDS011;7983;50.744;7.086;2024-01-10T01:13:43;3.83;;;2.43;;
15764;SDS011;7983;50.744;7.086;2024-01-10T01:16:10;3.37;;;2.40;;
15764;SDS011;7983;50.744;7.086;2024-01-10T01:18:39;4.63;;;2.47;;
15764;SDS011;7983;50.744;7.086;2024-01-10T01:21:04;4.53;;;2.70;;
15764;SDS011;7983;50.744;7.086;2024-01-10T01:23:34;4.50;;;2.70;;
15764;SDS011;7983;50.744;7.086;2024-01-10T01:26:02;4.57;;;2.70;;
15764;SDS011;7983;50.744;7.086;2024-01-10T01:28:29;3.93;;;2.60;;
15764;SDS011;7983;50.744;7.086;2024-01-10T01:30:55;4.13;;;2.43;;
15764;SDS011;7983;50.744;7.086;2024-01-10T01:33:21;4.40;;;2.70;;
15764;SDS011;7983;50.744;7.086;2024-01-10T01:35:49;4.00;;;2.90;;
15764;SDS011;7983;50.744;7.086;2024-01-10T01:38:14;3.77;;;2.53;;
15764;SDS011;7983;50.744;7.086;2024-01-10T01:40:40;3.80;;;2.50;;
15764;SDS011;7983;50.744;7.086;2024-01-10T01:43:21;6.73;;;3.07;;
15764;SDS011;7983;50.744;7.086;2024-01-10T01:45:49;4.60;;;2.60;;
15764;SDS011;7983;50.744;7.086;2024-01-10T01:48:22;4.37;;;2.83;;
15764;SDS011;7983;50.744;7.086;2024-01-10T01:50:50;4.37;;;2.60;;
15764;SDS011;7983;50.744;7.086;2024-01-10T01:53:17;4.53;;;2.27;;
15764;SDS011;7983;50.744;7.086;2024-01-10T01:55:44;3.60;;;2.43;;
15764;SDS011;7983;50.744;7.086;2024-01-10T01:58:11;4.23;;;2.60;;
15764;SDS011;7983;50.744;7.086;2024-01-10T02:00:39;4.33;;;2.40;;
15764;SDS011;7983;50.744;7.086;2024-01-10T02:03:05;6.20;;;2.20;;
15764;SDS011;7983;50.744;7.086;2024-01-10T02:05:31;3.67;;;2.20;;
15764;SDS011;7983;50.744;7.086;2024-01-10T02:07:57;4.40;;;2.30;;
15764;SDS011;7983;50.744;7.086;2024-01-10T02:10:23;3.33;;;2.27;;
15764;SDS011;7983;50.744;7.086;2024-01-10T02:12:49;3.90;;;2.50;;
15764;SDS011;7983;50.744;7.086;2024-01-10T02:15:14;4.27;;;2.10;;
15764;SDS011;7983;50.744;7.086;2024-01-10T02:17:43;4.07;;;2.33;;
15764;SDS011;7983;50.744;7.086;2024-01-10T02:22:41;3.13;;;2.23;;
15764;SDS011;7983;50.744;7.086;2024-01-10T02:25:07;5.13;;;2.50;;
15764;SDS011;7983;50.744;7.086;2024-01-10T02:27:36;3.37;;;2.13;;
15764;SDS011;7983;50.744;7.086;2024-01-10T02:30:03;3.90;;;2.30;;
15764;SDS011;7983;50.744;7.086;2024-01-10T02:32:29;4.03;;;2.50;;
15764;SDS011;7983;50.744;7.086;2024-01-10T02:34:58;3.80;;;2.30;;
15764;SDS011;7983;50.744;7.086;2024-01-10T02:37:24;3.47;;;2.33;;
15764;SDS011;7983;50.744;7.086;2024-01-10T02:39:49;3.03;;;2.27;;
15764;SDS011;7983;50.744;7.086;2024-01-10T02:42:18;4.03;;;2.40;;
15764;SDS011;7983;50.744;7.086;2024-01-10T02:44:43;3.60;;;2.10;;
15764;SDS011;7983;50.744;7.086;2024-01-10T02:47:11;2.57;;;1.90;;
15764;SDS011;7983;50.744;7.086;2024-01-10T02:49:38;3.70;;;2.20;;
15764;SDS011;7983;50.744;7.086;2024-01-10T02:52:04;3.60;;;2.30;;
15764;SDS011;7983;50.744;7.086;2024-01-10T02:54:32;4.00;;;2.03;;
15764;SDS011;7983;50.744;7.086;2024-01-10T02:56:58;3.73;;;2.00;;
15764;SDS011;7983;50.744;7.086;2024-01-10T02:59:26;4.63;;;2.30;;
15764;SDS011;7983;50.744;7.086;2024-01-10T03:01:53;4.73;;;2.17;;
15764;SDS011;7983;50.744;7.086;2024-01-10T03:04:19;3.20;;;2.00;;
15764;SDS011;7983;50.744;7.086;2024-01-10T03:06:45;3.13;;;2.10;;
15764;SDS011;7983;50.744;7.086;2024-01-10T03:09:10;3.67;;;2.23;;
15764;SDS011;7983;50.744;7.086;2024-01-10T03:11:38;3.23;;;2.00;;
15764;SDS011;7983;50.744;7.086;2024-01-10T03:14:07;4.63;;;2.30;;
15764;SDS011;7983;50.744;7.086;2024-01-10T03:16:36;3.60;;;2.10;;
15764;SDS011;7983;50.744;7.086;2024-01-10T03:19:02;3.10;;;2.10;;
15764;SDS011;7983;50.744;7.086;2024-01-10T03:21:28;3.47;;;2.50;;
15764;SDS011;7983;50.744;7.086;2024-01-10T03:23:57;4.53;;;2.67;;
15764;SDS011;7983;50.744;7.086;2024-01-10T03:26:26;4.30;;;2.70;;
15764;SDS011;7983;50.744;7.086;2024-01-10T03:28:52;3.50;;;2.30;;
15764;SDS011;7983;50.744;7.086;2024-01-10T03:31:20;3.80;;;2.00;;
15764;SDS011;7983;50.744;7.086;2024-01-10T03:33:49;3.27;;;2.00;;
15764;SDS011;7983;50.744;7.086;2024-01-10T03:36:23;3.37;;;2.17;;
15764;SDS011;7983;50.744;7.086;2024-01-10T03:38:52;3.20;;;1.97;;
15764;SDS011;7983;50.744;7.086;2024-01-10T03:41:26;3.47;;;2.10;;
15764;SDS011;7983;50.744;7.086;2024-01-10T03:43:51;3.27;;;2.00;;
15764;SDS011;7983;50.744;7.086;2024-01-10T03:46:22;3.77;;;2.30;;
15764;SDS011;7983;50.744;7.086;2024-01-10T03:48:50;3.67;;;2.50;;
15764;SDS011;7983;50.744;7.086;2024-01-10T03:51:17;6.13;;;2.57;;
15764;SDS011;7983;50.744;7.086;2024-01-10T03:53:46;4.00;;;2.40;;
15764;SDS011;7983;50.744;7.086;2024-01-10T03:56:14;4.17;;;2.70;;
15764;SDS011;7983;50.744;7.086;2024-01-10T03:58:40;4.40;;;3.07;;
15764;SDS011;7983;50.744;7.086;2024-01-10T04:01:06;4.70;;;2.83;;
15764;SDS011;7983;50.744;7.086;2024-01-10T04:03:33;5.07;;;3.13;;
15764;SDS011;7983;50.744;7.086;2024-01-10T04:05:58;3.80;;;2.40;;
15764;SDS011;7983;50.744;7.086;2024-01-10T04:08:27;3.83;;;2.20;;
15764;SDS011;7983;50.744;7.086;2024-01-10T04:10:52;3.90;;;2.37;;
15764;SDS011;7983;50.744;7.086;2024-01-10T04:13:18;4.17;;;2.60;;
15764;SDS011;7983;50.744;7.086;2024-01-10T04:15:44;4.33;;;2.40;;
15764;SDS011;7983;50.744;7.086;2024-01-10T04:18:09;3.80;;;2.20;;
15764;SDS011;7983;50.744;7.086;2024-01-10T04:20:37;3.30;;;2.20;;
15764;SDS011;7983;50.744;7.086;2024-01-10T04:23:05;4.47;;;3.03;;
15764;SDS011;7983;50.744;7.086;2024-01-10T04:25:30;4.10;;;2.43;;
15764;SDS011;7983;50.744;7.086;2024-01-10T04:28:04;3.70;;;2.43;;
15764;SDS011;7983;50.744;7.086;2024-01-10T04:30:30;4.10;;;2.60;;
15764;SDS011;7983;50.744;7.086;2024-01-10T04:32:57;3.00;;;2.00;;
15764;SDS011;7983;50.744;7.086;2024-01-10T04:35:25;2.77;;;1.90;;
15764;SDS011;7983;50.744;7.086;2024-01-10T04:37:51;4.30;;;2.60;;
15764;SDS011;7983;50.744;7.086;2024-01-10T04:40:16;3.83;;;2.23;;
15764;SDS011;7983;50.744;7.086;2024-01-10T04:42:45;3.90;;;2.30;;
15764;SDS011;7983;50.744;7.086;2024-01-10T04:45:11;3.50;;;2.10;;
15764;SDS011;7983;50.744;7.086;2024-01-10T04:47:36;3.53;;;2.03;;
15764;SDS011;7983;50.744;7.086;2024-01-10T04:50:02;4.90;;;2.40;;
15764;SDS011;7983;50.744;7.086;2024-01-10T04:52:30;3.87;;;2.17;;
15764;SDS011;7983;50.744;7.086;2024-01-10T04:54:56;3.40;;;2.37;;
15764;SDS011;7983;50.744;7.086;2024-01-10T04:57:21;4.30;;;3.03;;
15764;SDS011;7983;50.744;7.086;2024-01-10T04:59:47;4.17;;;2.33;;
15764;SDS011;7983;50.744;7.086;2024-01-10T05:02:13;3.60;;;1.97;;
15764;SDS011;7983;50.744;7.086;2024-01-10T05:04:44;4.53;;;2.43;;
15764;SDS011;7983;50.744;7.086;2024-01-10T05:07:10;3.50;;;2.10;;
15764;SDS011;7983;50.744;7.086;2024-01-10T05:09:36;3.50;;;2.27;;
15764;SDS011;7983;50.744;7.086;2024-01-10T05:12:02;3.93;;;2.43;;
15764;SDS011;7983;50.744;7.086;2024-01-10T05:14:28;4.60;;;2.97;;
15764;SDS011;7983;50.744;7.086;2024-01-10T05:16:53;4.40;;;2.47;;
15764;SDS011;7983;50.744;7.086;2024-01-10T05:19:21;3.67;;;2.57;;
15764;SDS011;7983;50.744;7.086;2024-01-10T05:21:49;3.63;;;2.23;;
15764;SDS011;7983;50.744;7.086;2024-01-10T05:24:15;5.57;;;3.00;;
15764;SDS011;7983;50.744;7.086;2024-01-10T05:26:41;4.40;;;2.70;;
15764;SDS011;7983;50.744;7.086;2024-01-10T05:29:08;4.60;;;2.90;;
15764;SDS011;7983;50.744;7.086;2024-01-10T05:31:34;4.63;;;2.80;;
15764;SDS011;7983;50.744;7.086;2024-01-10T05:34:00;4.57;;;2.80;;
15764;SDS011;7983;50.744;7.086;2024-01-10T05:36:25;5.47;;;3.37;;
15764;SDS011;7983;50.744;7.086;2024-01-10T05:38:51;8.03;;;3.80;;
15764;SDS011;7983;50.744;7.086;2024-01-10T05:41:17;7.40;;;4.17;;
15764;SDS011;7983;50.744;7.086;2024-01-10T05:43:42;7.03;;;4.07;;
15764;SDS011;7983;50.744;7.086;2024-01-10T05:46:09;8.33;;;4.33;;
15764;SDS011;7983;50.744;7.086;2024-01-10T05:48:35;6.90;;;4.60;;
15764;SDS011;7983;50.744;7.086;2024-01-10T05:51:00;7.40;;;4.30;;
15764;SDS011;7983;50.744;7.086;2024-01-10T05:53:28;6.30;;;4.00;;
15764;SDS011;7983;50.744;7.086;2024-01-10T05:55:54;8.33;;;4.13;;
15764;SDS011;7983;50.744;7.086;2024-01-10T05:58:20;7.63;;;4.50;;
15764;SDS011;7983;50.744;7.086;2024-01-10T06:00:45;7.67;;;4.20;;
15764;SDS011;7983;50.744;7.086;2024-01-10T06:03:11;6.67;;;3.87;;
15764;SDS011;7983;50.744;7.086;2024-01-10T06:05:41;6.00;;;3.37;;
15764;SDS011;7983;50.744;7.086;2024-01-10T06:08:07;7.50;;;3.80;;
15764;SDS011;7983;50.744;7.086;2024-01-10T06:10:35;6.80;;;3.50;;
15764;SDS011;7983;50.744;7.086;2024-01-10T06:13:01;4.80;;;3.00;;
15764;SDS011;7983;50.744;7.086;2024-01-10T06:15:26;5.53;;;3.13;;
15764;SDS011;7983;50.744;7.086;2024-01-10T06:17:52;5.47;;;3.67;;
15764;SDS011;7983;50.744;7.086;2024-01-10T06:20:18;5.70;;;3.23;;
15764;SDS011;7983;50.744;7.086;2024-01-10T06:22:46;4.80;;;3.33;;
15764;SDS011;7983;50.744;7.086;2024-01-10T06:25:14;4.10;;;2.90;;
15764;SDS011;7983;50.744;7.086;2024-01-10T06:27:40;3.43;;;2.53;;
15764;SDS011;7983;50.744;7.086;2024-01-10T06:30:08;4.23;;;3.00;;
15764;SDS011;7983;50.744;7.086;2024-01-10T06:32:36;4.70;;;3.10;;
15764;SDS011;7983;50.744;7.086;2024-01-10T06:35:01;4.57;;;2.97;;
15764;SDS011;7983;50.744;7.086;2024-01-10T06:37:29;4.10;;;3.00;;
15764;SDS011;7983;50.744;7.086;2024-01-10T06:39:57;4.83;;;3.40;;
15764;SDS011;7983;50.744;7.086;2024-01-10T06:42:25;4.87;;;3.27;;
15764;SDS011;7983;50.744;7.086;2024-01-10T06:44:51;5.30;;;3.23;;
15764;SDS011;7983;50.744;7.086;2024-01-10T06:47:17;5.83;;;3.20;;
15764;SDS011;7983;50.744;7.086;2024-01-10T06:49:45;5.50;;;3.03;;
15764;SDS011;7983;50.744;7.086;2024-01-10T06:52:10;4.63;;;3.07;;
15764;SDS011;7983;50.744;7.086;2024-01-10T06:54:36;5.87;;;3.10;;
15764;SDS011;7983;50.744;7.086;2024-01-10T06:57:06;4.60;;;2.70;;
15764;SDS011;7983;50.744;7.086;2024-01-10T06:59:34;4.40;;;2.70;;
15764;SDS011;7983;50.744;7.086;2024-01-10T07:02:00;4.77;;;2.40;;
15764;SDS011;7983;50.744;7.086;2024-01-10T07:04:26;4.37;;;2.57;;
15764;SDS011;7983;50.744;7.086;2024-01-10T07:06:54;4.50;;;2.90;;
15764;SDS011;7983;50.744;7.086;2024-01-10T07:09:20;5.20;;;3.10;;
15764;SDS011;7983;50.744;7.086;2024-01-10T07:11:46;5.17;;;3.27;;
15764;SDS011;7983;50.744;7.086;2024-01-10T07:14:13;3.90;;;2.70;;
15764;SDS011;7983;50.744;7.086;2024-01-10T07:16:39;5.23;;;2.80;;
15764;SDS011;7983;50.744;7.086;2024-01-10T07:19:08;4.73;;;2.80;;
15764;SDS011;7983;50.744;7.086;2024-01-10T07:21:40;4.07;;;2.50;;
15764;SDS011;7983;50.744;7.086;2024-01-10T07:24:11;5.87;;;3.00;;
15764;SDS011;7983;50.744;7.086;2024-01-10T07:26:39;5.73;;;3.13;;
15764;SDS011;7983;50.744;7.086;2024-01-10T07:29:10;4.17;;;2.70;;
15764;SDS011;7983;50.744;7.086;2024-01-10T07:31:38;4.27;;;2.87;;
15764;SDS011;7983;50.744;7.086;2024-01-10T07:34:05;5.80;;;3.40;;
15764;SDS011;7983;50.744;7.086;2024-01-10T07:36:32;5.23;;;3.73;;
15764;SDS011;7983;50.744;7.086;2024-01-10T07:39:03;5.17;;;3.33;;
15764;SDS011;7983;50.744;7.086;2024-01-10T07:41:29;5.03;;;3.23;;
15764;SDS011;7983;50.744;7.086;2024-01-10T07:43:54;5.70;;;3.17;;
15764;SDS011;7983;50.744;7.086;2024-01-10T07:46:24;5.30;;;3.30;;
15764;SDS011;7983;50.744;7.086;2024-01-10T07:48:55;5.57;;;3.07;;
15764;SDS011;7983;50.744;7.086;2024-01-10T07:51:23;4.33;;;2.90;;
15764;SDS011;7983;50.744;7.086;2024-01-10T07:53:51;4.57;;;2.70;;
15764;SDS011;7983;50.744;7.086;2024-01-10T07:56:16;5.03;;;2.97;;
15764;SDS011;7983;50.744;7.086;2024-01-10T07:58:44;4.27;;;2.87;;
15764;SDS011;7983;50.744;7.086;2024-01-10T08:01:16;4.60;;;3.13;;
15764;SDS011;7983;50.744;7.086;2024-01-10T08:03:42;4.73;;;3.23;;
15764;SDS011;7983;50.744;7.086;2024-01-10T08:06:08;6.10;;;3.13;;
15764;SDS011;7983;50.744;7.086;2024-01-10T08:08:35;5.80;;;3.63;;
15764;SDS011;7983;50.744;7.086;2024-01-10T08:11:04;6.37;;;4.00;;
15764;SDS011;7983;50.744;7.086;2024-01-10T08:13:30;5.83;;;3.13;;
15764;SDS011;7983;50.744;7.086;2024-01-10T08:15:56;5.97;;;3.40;;
15764;SDS011;7983;50.744;7.086;2024-01-10T08:18:21;4.73;;;3.07;;
15764;SDS011;7983;50.744;7.086;2024-01-10T08:20:49;5.37;;;3.20;;
15764;SDS011;7983;50.744;7.086;2024-01-10T08:23:15;3.83;;;2.70;;
15764;SDS011;7983;50.744;7.086;2024-01-10T08:25:40;5.60;;;2.90;;
15764;SDS011;7983;50.744;7.086;2024-01-10T08:28:09;5.10;;;3.20;;
15764;SDS011;7983;50.744;7.086;2024-01-10T08:30:37;4.77;;;3.00;;
15764;SDS011;7983;50.744;7.086;2024-01-10T08:33:03;6.00;;;4.07;;
15764;SDS011;7983;50.744;7.086;2024-01-10T08:35:29;7.57;;;4.27;;
15764;SDS011;7983;50.744;7.086;2024-01-10T08:37:55;5.47;;;3.67;;
15764;SDS011;7983;50.744;7.086;2024-01-10T08:40:20;4.97;;;3.23;;
15764;SDS011;7983;50.744;7.086;2024-01-10T08:42:52;4.50;;;3.27;;
15764;SDS011;7983;50.744;7.086;2024-01-10T08:45:18;6.37;;;3.87;;
15764;SDS011;7983;50.744;7.086;2024-01-10T08:47:43;6.17;;;3.83;;
15764;SDS011;7983;50.744;7.086;2024-01-10T08:50:09;7.83;;;4.23;;
15764;SDS011;7983;50.744;7.086;2024-01-10T08:52:38;6.00;;;3.77;;
15764;SDS011;7983;50.744;7.086;2024-01-10T08:55:04;6.00;;;3.80;;
15764;SDS011;7983;50.744;7.086;2024-01-10T08:57:31;5.67;;;3.77;;
15764;SDS011;7983;50.744;7.086;2024-01-10T08:59:58;5.67;;;3.50;;
15764;SDS011;7983;50.744;7.086;2024-01-10T09:02:25;7.00;;;4.13;;
15764;SDS011;7983;50.744;7.086;2024-01-10T09:04:52;6.67;;;3.90;;
15764;SDS011;7983;50.744;7.086;2024-01-10T09:07:18;7.03;;;3.93;;
15764;SDS011;7983;50.744;7.086;2024-01-10T09:09:45;6.47;;;3.90;;
15764;SDS011;7983;50.744;7.086;2024-01-10T09:12:13;5.67;;;3.50;;
15764;SDS011;7983;50.744;7.086;2024-01-10T09:14:39;7.47;;;4.40;;
15764;SDS011;7983;50.744;7.086;2024-01-10T09:17:05;6.70;;;4.13;;
15764;SDS011;7983;50.744;7.086;2024-01-10T09:19:30;6.13;;;4.10;;
15764;SDS011;7983;50.744;7.086;2024-01-10T09:21:58;7.00;;;4.50;;
15764;SDS011;7983;50.744;7.086;2024-01-10T09:24:26;8.17;;;4.57;;
15764;SDS011;7983;50.744;7.086;2024-01-10T09:26:52;7.50;;;4.97;;
15764;SDS011;7983;50.744;7.086;2024-01-10T09:29:21;8.50;;;4.87;;
15764;SDS011;7983;50.744;7.086;2024-01-10T09:31:54;7.80;;;4.60;;
15764;SDS011;7983;50.744;7.086;2024-01-10T09:34:19;7.73;;;4.90;;
15764;SDS011;7983;50.744;7.086;2024-01-10T09:36:45;9.13;;;5.17;;
15764;SDS011;7983;50.744;7.086;2024-01-10T09:39:11;8.57;;;5.40;;
15764;SDS011;7983;50.744;7.086;2024-01-10T09:41:40;9.07;;;5.50;;
15764;SDS011;7983;50.744;7.086;2024-01-10T09:44:10;7.87;;;5.10;;
15764;SDS011;7983;50.744;7.086;2024-01-10T09:46:37;10.37;;;5.60;;
15764;SDS011;7983;50.744;7.086;2024-01-10T09:49:08;8.37;;;5.17;;
15764;SDS011;7983;50.744;7.086;2024-01-10T09:51:34;8.93;;;4.77;;
15764;SDS011;7983;50.744;7.086;2024-01-10T09:54:00;9.03;;;6.07;;
15764;SDS011;7983;50.744;7.086;2024-01-10T09:56:30;11.87;;;6.30;;
15764;SDS011;7983;50.744;7.086;2024-01-10T09:59:01;9.43;;;5.90;;
15764;SDS011;7983;50.744;7.086;2024-01-10T10:01:33;11.30;;;6.57;;
15764;SDS011;7983;50.744;7.086;2024-01-10T10:03:59;9.43;;;5.93;;
15764;SDS011;7983;50.744;7.086;2024-01-10T10:06:27;9.90;;;5.93;;
15764;SDS011;7983;50.744;7.086;2024-01-10T10:08:52;9.50;;;5.40;;
15764;SDS011;7983;50.744;7.086;2024-01-10T10:11:20;7.97;;;5.13;;
15764;SDS011;7983;50.744;7.086;2024-01-10T10:13:46;9.17;;;5.97;;
15764;SDS011;7983;50.744;7.086;2024-01-10T10:16:13;9.33;;;5.37;;
15764;SDS011;7983;50.744;7.086;2024-01-10T10:18:51;9.57;;;6.17;;
15764;SDS011;7983;50.744;7.086;2024-01-10T10:21:24;9.70;;;5.97;;
15764;SDS011;7983;50.744;7.086;2024-01-10T10:24:02;9.37;;;5.60;;
15764;SDS011;7983;50.744;7.086;2024-01-10T10:26:33;10.20;;;5.73;;
15764;SDS011;7983;50.744;7.086;2024-01-10T10:28:59;8.47;;;5.43;;
15764;SDS011;7983;50.744;7.086;2024-01-10T10:31:25;9.80;;;6.07;;
15764;SDS011;7983;50.744;7.086;2024-01-10T10:33:53;9.57;;;6.20;;
15764;SDS011;7983;50.744;7.086;2024-01-10T10:36:22;9.73;;;6.17;;
15764;SDS011;7983;50.744;7.086;2024-01-10T10:38:47;11.13;;;6.40;;
15764;SDS011;7983;50.744;7.086;2024-01-10T10:41:14;7.77;;;5.70;;
15764;SDS011;7983;50.744;7.086;2024-01-10T10:43:40;11.37;;;6.40;;
15764;SDS011;7983;50.744;7.086;2024-01-10T10:46:09;11.57;;;6.93;;
15764;SDS011;7983;50.744;7.086;2024-01-10T10:48:37;11.17;;;7.27;;
15764;SDS011;7983;50.744;7.086;2024-01-10T10:53:39;12.57;;;6.90;;
15764;SDS011;7983;50.744;7.086;2024-01-10T10:56:10;9.63;;;6.40;;
15764;SDS011;7983;50.744;7.086;2024-01-10T10:58:40;9.67;;;6.00;;
15764;SDS011;7983;50.744;7.086;2024-01-10T11:01:12;9.53;;;5.93;;
15764;SDS011;7983;50.744;7.086;2024-01-10T11:03:40;9.40;;;6.13;;
15764;SDS011;7983;50.744;7.086;2024-01-10T11:06:12;11.13;;;6.70;;
15764;SDS011;7983;50.744;7.086;2024-01-10T11:08:45;12.07;;;6.43;;
15764;SDS011;7983;50.744;7.086;2024-01-10T11:11:15;10.60;;;6.37;;
15764;SDS011;7983;50.744;7.086;2024-01-10T11:24:50;10.50;;;6.00;;
15764;SDS011;7983;50.744;7.086;2024-01-10T11:27:20;10.20;;;6.40;;
15764;SDS011;7983;50.744;7.086;2024-01-10T11:29:48;8.80;;;6.00;;
15764;SDS011;7983;50.744;7.086;2024-01-10T11:32:16;9.57;;;6.23;;
15764;SDS011;7983;50.744;7.086;2024-01-10T11:35:19;9.67;;;5.97;;
15764;SDS011;7983;50.744;7.086;2024-01-10T11:37:44;9.40;;;6.07;;
15764;SDS011;7983;50.744;7.086;2024-01-10T11:40:14;9.03;;;6.43;;
15764;SDS011;7983;50.744;7.086;2024-01-10T11:42:41;10.80;;;6.40;;
15764;SDS011;7983;50.744;7.086;2024-01-10T11:45:16;10.37;;;6.83;;
15764;SDS011;7983;50.744;7.086;2024-01-10T11:48:06;8.53;;;5.77;;
15764;SDS011;7983;50.744;7.086;2024-01-10T11:50:34;8.37;;;6.17;;
15764;SDS011;7983;50.744;7.086;2024-01-10T11:53:00;9.70;;;6.60;;
15764;SDS011;7983;50.744;7.086;2024-01-10T11:58:19;10.33;;;6.57;;
15764;SDS011;7983;50.744;7.086;2024-01-10T12:00:46;9.67;;;6.90;;
15764;SDS011;7983;50.744;7.086;2024-01-10T12:03:12;10.67;;;6.57;;
15764;SDS011;7983;50.744;7.086;2024-01-10T12:05:42;10.20;;;6.80;;
15764;SDS011;7983;50.744;7.086;2024-01-10T12:08:08;10.57;;;6.90;;
15764;SDS011;7983;50.744;7.086;2024-01-10T12:10:34;9.87;;;6.60;;
15764;SDS011;7983;50.744;7.086;2024-01-10T12:13:03;11.10;;;7.00;;
15764;SDS011;7983;50.744;7.086;2024-01-10T12:15:29;10.50;;;6.77;;
15764;SDS011;7983;50.744;7.086;2024-01-10T12:17:55;8.73;;;5.67;;
15764;SDS011;7983;50.744;7.086;2024-01-10T12:20:21;10.53;;;6.70;;
15764;SDS011;7983;50.744;7.086;2024-01-10T12:22:46;11.80;;;6.70;;
15764;SDS011;7983;50.744;7.086;2024-01-10T12:25:12;11.63;;;7.20;;
15764;SDS011;7983;50.744;7.086;2024-01-10T12:27:38;10.67;;;6.53;;
15764;SDS011;7983;50.744;7.086;2024-01-10T12:30:04;10.67;;;6.50;;
15764;SDS011;7983;50.744;7.086;2024-01-10T12:32:31;11.40;;;7.00;;
15764;SDS011;7983;50.744;7.086;2024-01-10T12:35:02;10.30;;;6.83;;
15764;SDS011;7983;50.744;7.086;2024-01-10T12:37:29;9.27;;;5.87;;
15764;SDS011;7983;50.744;7.086;2024-01-10T12:39:55;9.20;;;6.30;;
15764;SDS011;7983;50.744;7.086;2024-01-10T12:42:22;10.00;;;6.43;;
15764;SDS011;7983;50.744;7.086;2024-01-10T12:44:50;10.67;;;6.27;;
15764;SDS011;7983;50.744;7.086;2024-01-10T12:47:22;10.73;;;6.63;;
15764;SDS011;7983;50.744;7.086;2024-01-10T12:49:50;10.23;;;6.10;;
15764;SDS011;7983;50.744;7.086;2024-01-10T12:52:16;10.03;;;6.73;;
15764;SDS011;7983;50.744;7.086;2024-01-10T12:54:41;9.33;;;6.63;;
15764;SDS011;7983;50.744;7.086;2024-01-10T12:57:09;9.90;;;6.47;;
15764;SDS011;7983;50.744;7.086;2024-01-10T12:59:35;9.33;;;6.40;;
15764;SDS011;7983;50.744;7.086;2024-01-10T13:02:00;10.10;;;6.40;;
15764;SDS011;7983;50.744;7.086;2024-01-10T13:04:26;11.20;;;7.23;;
15764;SDS011;7983;50.744;7.086;2024-01-10T13:06:52;10.67;;;7.03;;
15764;SDS011;7983;50.744;7.086;2024-01-10T13:09:17;10.70;;;7.03;;
15764;SDS011;7983;50.744;7.086;2024-01-10T13:11:43;11.03;;;7.13;;
15764;SDS011;7983;50.744;7.086;2024-01-10T13:14:10;10.93;;;7.50;;
15764;SDS011;7983;50.744;7.086;2024-01-10T13:16:41;11.63;;;7.50;;
15764;SDS011;7983;50.744;7.086;2024-01-10T13:19:09;12.93;;;8.53;;
15764;SDS011;7983;50.744;7.086;2024-01-10T13:21:34;11.67;;;7.57;;
15764;SDS011;7983;50.744;7.086;2024-01-10T13:24:00;12.63;;;8.13;;
15764;SDS011;7983;50.744;7.086;2024-01-10T13:26:26;11.93;;;7.57;;
15764;SDS011;7983;50.744;7.086;2024-01-10T13:28:51;11.10;;;7.17;;
15764;SDS011;7983;50.744;7.086;2024-01-10T13:31:19;11.20;;;7.17;;
15764;SDS011;7983;50.744;7.086;2024-01-10T13:33:48;10.40;;;6.80;;
15764;SDS011;7983;50.744;7.086;2024-01-10T13:36:13;11.40;;;7.40;;
15764;SDS011;7983;50.744;7.086;2024-01-10T13:38:39;10.77;;;6.87;;
15764;SDS011;7983;50.744;7.086;2024-01-10T13:41:04;10.53;;;6.83;;
15764;SDS011;7983;50.744;7.086;2024-01-10T13:43:35;11.33;;;7.37;;
15764;SDS011;7983;50.744;7.086;2024-01-10T13:46:01;10.63;;;6.70;;
15764;SDS011;7983;50.744;7.086;2024-01-10T13:48:29;10.80;;;6.90;;
15764;SDS011;7983;50.744;7.086;2024-01-10T13:50:59;9.90;;;6.60;;
15764;SDS011;7983;50.744;7.086;2024-01-10T13:53:27;11.80;;;7.37;;
15764;SDS011;7983;50.744;7.086;2024-01-10T13:55:55;12.00;;;7.77;;
15764;SDS011;7983;50.744;7.086;2024-01-10T13:58:20;10.30;;;7.33;;
15764;SDS011;7983;50.744;7.086;2024-01-10T14:00:49;9.53;;;6.97;;
15764;SDS011;7983;50.744;7.086;2024-01-10T14:03:14;11.07;;;7.03;;
15764;SDS011;7983;50.744;7.086;2024-01-10T14:05:41;11.40;;;7.57;;
15764;SDS011;7983;50.744;7.086;2024-01-10T14:08:09;11.70;;;7.43;;
15764;SDS011;7983;50.744;7.086;2024-01-10T14:10:37;10.63;;;6.80;;
15764;SDS011;7983;50.744;7.086;2024-01-10T14:13:04;11.40;;;7.40;;
15764;SDS011;7983;50.744;7.086;2024-01-10T14:15:29;10.27;;;7.00;;
15764;SDS011;7983;50.744;7.086;2024-01-10T14:17:55;14.33;;;8.20;;
15764;SDS011;7983;50.744;7.086;2024-01-10T14:20:22;12.93;;;8.13;;
15764;SDS011;7983;50.744;7.086;2024-01-10T14:22:48;11.60;;;8.37;;
15764;SDS011;7983;50.744;7.086;2024-01-10T14:25:17;12.87;;;8.03;;
15764;SDS011;7983;50.744;7.086;2024-01-10T14:27:48;12.97;;;8.00;;
15764;SDS011;7983;50.744;7.086;2024-01-10T14:30:16;12.03;;;7.87;;
15764;SDS011;7983;50.744;7.086;2024-01-10T14:32:42;14.77;;;8.30;;
15764;SDS011;7983;50.744;7.086;2024-01-10T14:35:07;12.00;;;7.87;;
15764;SDS011;7983;50.744;7.086;2024-01-10T14:37:35;10.27;;;7.00;;
15764;SDS011;7983;50.744;7.086;2024-01-10T14:40:01;11.63;;;7.30;;
15764;SDS011;7983;50.744;7.086;2024-01-10T14:42:28;10.67;;;7.20;;
15764;SDS011;7983;50.744;7.086;2024-01-10T14:44:57;11.23;;;6.80;;
15764;SDS011;7983;50.744;7.086;2024-01-10T14:47:27;9.73;;;6.33;;
15764;SDS011;7983;50.744;7.086;2024-01-10T14:49:57;9.70;;;6.70;;
15764;SDS011;7983;50.744;7.086;2024-01-10T14:52:29;9.07;;;6.10;;
15764;SDS011;7983;50.744;7.086;2024-01-10T14:54:55;9.87;;;6.17;;
15764;SDS011;7983;50.744;7.086;2024-01-10T14:57:20;11.83;;;6.80;;
15764;SDS011;7983;50.744;7.086;2024-01-10T14:59:46;10.40;;;6.67;;
15764;SDS011;7983;50.744;7.086;2024-01-10T15:02:14;9.87;;;6.60;;
15764;SDS011;7983;50.744;7.086;2024-01-10T15:04:45;12.23;;;7.33;;
15764;SDS011;7983;50.744;7.086;2024-01-10T15:07:10;10.43;;;6.40;;
15764;SDS011;7983;50.744;7.086;2024-01-10T15:09:37;11.60;;;7.53;;
15764;SDS011;7983;50.744;7.086;2024-01-10T15:12:05;11.17;;;7.30;;
15764;SDS011;7983;50.744;7.086;2024-01-10T15:14:35;10.40;;;6.50;;
15764;SDS011;7983;50.744;7.086;2024-01-10T15:17:06;9.87;;;6.73;;